sensor_id;sensor_type;location;lat;lon;timestamp;P1;durP1;ratioP1;P2;durP2;ratioP2
6243;SDS011;3155;49.940;8.450;2023-07-02T00:01:34;0.35;;;0.35;;
6243;SDS011;3155;49.940;8.450;2023-07-02T00:04:25;0.30;;;0.30;;
6243;SDS011;3155;49.940;8.450;2023-07-02T00:06:57;0.38;;;0.38;;
6243;SDS011;3155;49.940;8.450;2023-07-02T00:09:25;0.40;;;0.40;;
6243;SDS011;3155;49.940;8.450;2023-07-02T00:11:54;0.40;;;0.40;;
6243;SDS011;3155;49.940;8.450;2023-07-02T00:14:22;1.52;;;0.50;;
6243;SDS011;3155;49.940;8.450;2023-07-02T00:16:49;0.40;;;0.40;;
6243;SDS011;3155;49.940;8.450;2023-07-02T00:19:16;0.40;;;0.40;;
6243;SDS011;3155;49.940;8.450;2023-07-02T00:21:52;0.50;;;0.40;;
6243;SDS011;3155;49.940;8.450;2023-07-02T00:24:19;1.80;;;0.53;;
6243;SDS011;3155;49.940;8.450;2023-07-02T00:26:47;1.67;;;0.80;;
6243;SDS011;3155;49.940;8.450;2023-07-02T00:29:14;0.70;;;0.70;;
6243;SDS011;3155;49.940;8.450;2023-07-02T00:31:44;0.47;;;0.47;;
6243;SDS011;3155;49.940;8.450;2023-07-02T00:34:11;0.30;;;0.30;;
6243;SDS011;3155;49.940;8.450;2023-07-02T00:36:38;0.40;;;0.40;;
6243;SDS011;3155;49.940;8.450;2023-07-02T00:39:08;1.30;;;0.53;;
6243;SDS011;3155;49.940;8.450;2023-07-02T00:41:38;0.30;;;0.30;;
6243;SDS011;3155;49.940;8.450;2023-07-02T00:44:06;2.40;;;0.25;;
6243;SDS011;3155;49.940;8.450;2023-07-02T00:46:59;0.50;;;0.50;;
6243;SDS011;3155;49.940;8.450;2023-07-02T00:49:28;0.50;;;0.50;;
6243;SDS011;3155;49.940;8.450;2023-07-02T00:51:59;0.35;;;0.35;;
6243;SDS011;3155;49.940;8.450;2023-07-02T00:54:30;0.30;;;0.30;;
6243;SDS011;3155;49.940;8.450;2023-07-02T00:56:57;0.20;;;0.20;;
6243;SDS011;3155;49.940;8.450;2023-07-02T00:59:29;0.45;;;0.45;;
6243;SDS011;3155;49.940;8.450;2023-07-02T01:01:59;0.90;;;0.70;;
6243;SDS011;3155;49.940;8.450;2023-07-02T01:04:27;0.32;;;0.32;;
6243;SDS011;3155;49.940;8.450;2023-07-02T01:06:54;0.40;;;0.40;;
6243;SDS011;3155;49.940;8.450;2023-07-02T01:09:24;0.30;;;0.30;;
6243;SDS011;3155;49.940;8.450;2023-07-02T01:11:54;0.27;;;0.27;;
6243;SDS011;3155;49.940;8.450;2023-07-02T01:14:26;0.80;;;0.40;;
6243;SDS011;3155;49.940;8.450;2023-07-02T01:16:54;0.75;;;0.75;;
6243;SDS011;3155;49.940;8.450;2023-07-02T01:19:45;0.50;;;0.20;;
6243;SDS011;3155;49.940;8.450;2023-07-02T01:22:26;0.40;;;0.40;;
6243;SDS011;3155;49.940;8.450;2023-07-02T01:24:54;0.30;;;0.30;;
6243;SDS011;3155;49.940;8.450;2023-07-02T01:27:21;0.40;;;0.40;;
6243;SDS011;3155;49.940;8.450;2023-07-02T01:29:52;0.50;;;0.40;;
6243;SDS011;3155;49.940;8.450;2023-07-02T01:32:19;0.65;;;0.65;;
6243;SDS011;3155;49.940;8.450;2023-07-02T01:34:47;0.35;;;0.35;;
6243;SDS011;3155;49.940;8.450;2023-07-02T01:37:24;0.80;;;0.28;;
6243;SDS011;3155;49.940;8.450;2023-07-02T01:39:51;0.60;;;0.40;;
6243;SDS011;3155;49.940;8.450;2023-07-02T01:42:19;2.95;;;0.40;;
6243;SDS011;3155;49.940;8.450;2023-07-02T01:44:47;1.40;;;0.68;;
6243;SDS011;3155;49.940;8.450;2023-07-02T01:47:14;0.45;;;0.45;;
6243;SDS011;3155;49.940;8.450;2023-07-02T01:49:43;0.52;;;0.52;;
6243;SDS011;3155;49.940;8.450;2023-07-02T01:52:10;0.57;;;0.57;;
6243;SDS011;3155;49.940;8.450;2023-07-02T01:54:37;0.35;;;0.35;;
6243;SDS011;3155;49.940;8.450;2023-07-02T01:57:04;0.32;;;0.32;;
6243;SDS011;3155;49.940;8.450;2023-07-02T01:59:32;0.65;;;0.65;;
6243;SDS011;3155;49.940;8.450;2023-07-02T02:01:59;0.70;;;0.40;;
6243;SDS011;3155;49.940;8.450;2023-07-02T02:04:26;0.53;;;0.53;;
6243;SDS011;3155;49.940;8.450;2023-07-02T02:06:53;0.60;;;0.60;;
6243;SDS011;3155;49.940;8.450;2023-07-02T02:09:24;0.30;;;0.30;;
6243;SDS011;3155;49.940;8.450;2023-07-02T02:11:51;0.47;;;0.47;;
6243;SDS011;3155;49.940;8.450;2023-07-02T02:14:19;0.47;;;0.47;;
6243;SDS011;3155;49.940;8.450;2023-07-02T02:16:50;0.50;;;0.50;;
6243;SDS011;3155;49.940;8.450;2023-07-02T02:19:18;1.60;;;0.50;;
6243;SDS011;3155;49.940;8.450;2023-07-02T02:21:48;0.40;;;0.40;;
6243;SDS011;3155;49.940;8.450;2023-07-02T02:24:15;0.75;;;0.65;;
6243;SDS011;3155;49.940;8.450;2023-07-02T02:26:43;0.30;;;0.30;;
6243;SDS011;3155;49.940;8.450;2023-07-02T02:29:10;0.95;;;0.63;;
6243;SDS011;3155;49.940;8.450;2023-07-02T02:31:37;0.67;;;0.67;;
6243;SDS011;3155;49.940;8.450;2023-07-02T02:34:04;0.70;;;0.70;;
6243;SDS011;3155;49.940;8.450;2023-07-02T02:36:32;1.00;;;0.70;;
6243;SDS011;3155;49.940;8.450;2023-07-02T02:38:59;1.20;;;1.10;;
6243;SDS011;3155;49.940;8.450;2023-07-02T02:41:26;2.17;;;0.33;;
6243;SDS011;3155;49.940;8.450;2023-07-02T02:43:53;0.37;;;0.37;;
6243;SDS011;3155;49.940;8.450;2023-07-02T02:46:21;0.40;;;0.40;;
6243;SDS011;3155;49.940;8.450;2023-07-02T02:48:48;0.90;;;0.80;;
6243;SDS011;3155;49.940;8.450;2023-07-02T02:51:16;1.95;;;1.10;;
6243;SDS011;3155;49.940;8.450;2023-07-02T02:53:43;1.13;;;0.60;;
6243;SDS011;3155;49.940;8.450;2023-07-02T02:56:10;0.77;;;0.77;;
6243;SDS011;3155;49.940;8.450;2023-07-02T02:58:40;1.10;;;0.93;;
6243;SDS011;3155;49.940;8.450;2023-07-02T03:01:11;1.40;;;1.30;;
6243;SDS011;3155;49.940;8.450;2023-07-02T03:03:41;1.20;;;1.10;;
6243;SDS011;3155;49.940;8.450;2023-07-02T03:06:14;1.08;;;0.60;;
6243;SDS011;3155;49.940;8.450;2023-07-02T03:08:42;0.50;;;0.50;;
6243;SDS011;3155;49.940;8.450;2023-07-02T03:11:09;1.50;;;1.10;;
6243;SDS011;3155;49.940;8.450;2023-07-02T03:13:36;0.73;;;0.67;;
6243;SDS011;3155;49.940;8.450;2023-07-02T03:16:04;2.08;;;0.63;;
6243;SDS011;3155;49.940;8.450;2023-07-02T03:18:31;0.50;;;0.50;;
6243;SDS011;3155;49.940;8.450;2023-07-02T03:20:59;0.60;;;0.60;;
6243;SDS011;3155;49.940;8.450;2023-07-02T03:23:26;0.97;;;0.97;;
6243;SDS011;3155;49.940;8.450;2023-07-02T03:25:53;1.20;;;1.10;;
6243;SDS011;3155;49.940;8.450;2023-07-02T03:28:20;0.40;;;0.40;;
6243;SDS011;3155;49.940;8.450;2023-07-02T03:30:47;3.33;;;1.10;;
6243;SDS011;3155;49.940;8.450;2023-07-02T03:33:15;1.40;;;0.88;;
6243;SDS011;3155;49.940;8.450;2023-07-02T03:35:42;1.15;;;0.77;;
6243;SDS011;3155;49.940;8.450;2023-07-02T03:38:10;1.00;;;1.00;;
6243;SDS011;3155;49.940;8.450;2023-07-02T03:40:37;0.80;;;0.73;;
6243;SDS011;3155;49.940;8.450;2023-07-02T03:43:05;1.10;;;0.75;;
6243;SDS011;3155;49.940;8.450;2023-07-02T03:45:32;0.40;;;0.40;;
6243;SDS011;3155;49.940;8.450;2023-07-02T03:47:59;0.80;;;0.80;;
6243;SDS011;3155;49.940;8.450;2023-07-02T03:50:27;1.00;;;0.65;;
6243;SDS011;3155;49.940;8.450;2023-07-02T03:52:54;0.80;;;0.80;;
6243;SDS011;3155;49.940;8.450;2023-07-02T03:55:24;6.78;;;0.93;;
6243;SDS011;3155;49.940;8.450;2023-07-02T03:57:51;1.45;;;1.23;;
6243;SDS011;3155;49.940;8.450;2023-07-02T04:00:19;1.95;;;1.20;;
6243;SDS011;3155;49.940;8.450;2023-07-02T04:02:46;0.57;;;0.57;;
6243;SDS011;3155;49.940;8.450;2023-07-02T04:05:13;1.00;;;0.90;;
6243;SDS011;3155;49.940;8.450;2023-07-02T04:07:40;0.60;;;0.60;;
6243;SDS011;3155;49.940;8.450;2023-07-02T04:10:08;1.88;;;0.85;;
6243;SDS011;3155;49.940;8.450;2023-07-02T04:12:35;0.60;;;0.60;;
6243;SDS011;3155;49.940;8.450;2023-07-02T04:15:03;1.60;;;0.90;;
6243;SDS011;3155;49.940;8.450;2023-07-02T04:17:30;0.80;;;0.80;;
6243;SDS011;3155;49.940;8.450;2023-07-02T04:19:59;1.30;;;1.20;;
6243;SDS011;3155;49.940;8.450;2023-07-02T04:22:26;1.30;;;1.20;;
6243;SDS011;3155;49.940;8.450;2023-07-02T04:24:56;1.63;;;1.02;;
6243;SDS011;3155;49.940;8.450;2023-07-02T04:27:34;1.20;;;0.98;;
6243;SDS011;3155;49.940;8.450;2023-07-02T04:30:16;1.00;;;1.00;;
6243;SDS011;3155;49.940;8.450;2023-07-02T04:32:44;0.82;;;0.82;;
6243;SDS011;3155;49.940;8.450;2023-07-02T04:35:11;0.47;;;0.47;;
6243;SDS011;3155;49.940;8.450;2023-07-02T04:37:40;1.20;;;1.10;;
6243;SDS011;3155;49.940;8.450;2023-07-02T04:40:08;0.77;;;0.77;;
6243;SDS011;3155;49.940;8.450;2023-07-02T04:42:38;0.87;;;0.87;;
6243;SDS011;3155;49.940;8.450;2023-07-02T04:45:08;2.17;;;1.00;;
6243;SDS011;3155;49.940;8.450;2023-07-02T04:47:35;0.50;;;0.50;;
6243;SDS011;3155;49.940;8.450;2023-07-02T04:50:03;1.10;;;0.77;;
6243;SDS011;3155;49.940;8.450;2023-07-02T04:52:32;3.28;;;1.25;;
6243;SDS011;3155;49.940;8.450;2023-07-02T04:54:59;1.45;;;1.35;;
6243;SDS011;3155;49.940;8.450;2023-07-02T04:57:26;0.75;;;0.70;;
6243;SDS011;3155;49.940;8.450;2023-07-02T04:59:54;1.00;;;0.93;;
6243;SDS011;3155;49.940;8.450;2023-07-02T05:02:24;1.15;;;1.08;;
6243;SDS011;3155;49.940;8.450;2023-07-02T05:04:51;1.30;;;1.20;;
6243;SDS011;3155;49.940;8.450;2023-07-02T05:07:19;0.73;;;0.73;;
6243;SDS011;3155;49.940;8.450;2023-07-02T05:09:46;1.08;;;0.82;;
6243;SDS011;3155;49.940;8.450;2023-07-02T05:12:18;1.77;;;1.55;;
6243;SDS011;3155;49.940;8.450;2023-07-02T05:14:45;1.17;;;0.93;;
6243;SDS011;3155;49.940;8.450;2023-07-02T05:17:12;1.83;;;1.33;;
6243;SDS011;3155;49.940;8.450;2023-07-02T05:19:40;1.50;;;1.35;;
6243;SDS011;3155;49.940;8.450;2023-07-02T05:22:08;1.10;;;1.08;;
6243;SDS011;3155;49.940;8.450;2023-07-02T05:24:35;1.27;;;1.17;;
6243;SDS011;3155;49.940;8.450;2023-07-02T05:27:07;1.95;;;1.08;;
6243;SDS011;3155;49.940;8.450;2023-07-02T05:29:37;1.42;;;1.25;;
6243;SDS011;3155;49.940;8.450;2023-07-02T05:32:04;1.77;;;1.38;;
6243;SDS011;3155;49.940;8.450;2023-07-02T05:34:32;3.10;;;1.45;;
6243;SDS011;3155;49.940;8.450;2023-07-02T05:37:00;1.58;;;1.42;;
6243;SDS011;3155;49.940;8.450;2023-07-02T05:39:29;3.03;;;1.35;;
6243;SDS011;3155;49.940;8.450;2023-07-02T05:41:57;3.25;;;1.60;;
6243;SDS011;3155;49.940;8.450;2023-07-02T05:44:27;1.27;;;1.05;;
6243;SDS011;3155;49.940;8.450;2023-07-02T05:46:54;2.38;;;1.20;;
6243;SDS011;3155;49.940;8.450;2023-07-02T05:49:22;3.20;;;1.70;;
6243;SDS011;3155;49.940;8.450;2023-07-02T05:51:49;3.28;;;1.40;;
6243;SDS011;3155;49.940;8.450;2023-07-02T05:54:16;1.63;;;1.52;;
6243;SDS011;3155;49.940;8.450;2023-07-02T05:56:44;1.75;;;1.33;;
6243;SDS011;3155;49.940;8.450;2023-07-02T05:59:11;2.40;;;2.10;;
6243;SDS011;3155;49.940;8.450;2023-07-02T06:01:41;2.08;;;1.58;;
6243;SDS011;3155;49.940;8.450;2023-07-02T06:04:11;2.20;;;1.50;;
6243;SDS011;3155;49.940;8.450;2023-07-02T06:06:38;2.15;;;1.40;;
6243;SDS011;3155;49.940;8.450;2023-07-02T06:09:08;2.27;;;1.40;;
6243;SDS011;3155;49.940;8.450;2023-07-02T06:11:35;2.10;;;1.20;;
6243;SDS011;3155;49.940;8.450;2023-07-02T06:14:05;1.43;;;1.33;;
6243;SDS011;3155;49.940;8.450;2023-07-02T06:16:32;3.20;;;1.77;;
6243;SDS011;3155;49.940;8.450;2023-07-02T06:19:03;4.43;;;2.27;;
6243;SDS011;3155;49.940;8.450;2023-07-02T06:21:31;4.50;;;1.55;;
6243;SDS011;3155;49.940;8.450;2023-07-02T06:23:58;4.03;;;2.35;;
6243;SDS011;3155;49.940;8.450;2023-07-02T06:26:26;2.55;;;2.35;;
6243;SDS011;3155;49.940;8.450;2023-07-02T06:28:53;4.78;;;2.20;;
6243;SDS011;3155;49.940;8.450;2023-07-02T06:31:22;2.85;;;1.48;;
6243;SDS011;3155;49.940;8.450;2023-07-02T06:33:49;2.35;;;1.95;;
6243;SDS011;3155;49.940;8.450;2023-07-02T06:36:16;5.60;;;2.50;;
6243;SDS011;3155;49.940;8.450;2023-07-02T06:38:44;1.90;;;1.80;;
6243;SDS011;3155;49.940;8.450;2023-07-02T06:41:11;2.33;;;2.13;;
6243;SDS011;3155;49.940;8.450;2023-07-02T06:43:38;4.13;;;2.00;;
6243;SDS011;3155;49.940;8.450;2023-07-02T06:46:06;2.13;;;1.90;;
6243;SDS011;3155;49.940;8.450;2023-07-02T06:48:33;2.50;;;2.05;;
6243;SDS011;3155;49.940;8.450;2023-07-02T06:51:00;2.65;;;1.58;;
6243;SDS011;3155;49.940;8.450;2023-07-02T06:53:28;3.72;;;1.98;;
6243;SDS011;3155;49.940;8.450;2023-07-02T06:55:57;1.87;;;1.50;;
6243;SDS011;3155;49.940;8.450;2023-07-02T06:58:24;2.22;;;1.70;;
6243;SDS011;3155;49.940;8.450;2023-07-02T07:00:51;3.65;;;2.28;;
6243;SDS011;3155;49.940;8.450;2023-07-02T07:03:18;2.33;;;1.73;;
6243;SDS011;3155;49.940;8.450;2023-07-02T07:05:46;3.97;;;1.88;;
6243;SDS011;3155;49.940;8.450;2023-07-02T07:08:13;4.25;;;2.13;;
6243;SDS011;3155;49.940;8.450;2023-07-02T07:10:40;3.67;;;2.60;;
6243;SDS011;3155;49.940;8.450;2023-07-02T07:13:08;3.22;;;2.08;;
6243;SDS011;3155;49.940;8.450;2023-07-02T07:15:37;4.15;;;2.20;;
6243;SDS011;3155;49.940;8.450;2023-07-02T07:18:05;2.80;;;2.00;;
6243;SDS011;3155;49.940;8.450;2023-07-02T07:20:32;3.08;;;2.22;;
6243;SDS011;3155;49.940;8.450;2023-07-02T07:22:59;4.15;;;2.92;;
6243;SDS011;3155;49.940;8.450;2023-07-02T07:25:27;2.47;;;2.28;;
6243;SDS011;3155;49.940;8.450;2023-07-02T07:27:54;2.80;;;2.07;;
6243;SDS011;3155;49.940;8.450;2023-07-02T07:30:21;3.55;;;2.30;;
6243;SDS011;3155;49.940;8.450;2023-07-02T07:32:52;4.60;;;2.13;;
6243;SDS011;3155;49.940;8.450;2023-07-02T07:35:20;4.53;;;2.30;;
6243;SDS011;3155;49.940;8.450;2023-07-02T07:37:48;3.22;;;2.33;;
6243;SDS011;3155;49.940;8.450;2023-07-02T07:40:16;3.30;;;2.33;;
6243;SDS011;3155;49.940;8.450;2023-07-02T07:42:43;3.17;;;2.85;;
6243;SDS011;3155;49.940;8.450;2023-07-02T07:45:11;6.60;;;2.67;;
6243;SDS011;3155;49.940;8.450;2023-07-02T07:47:40;3.85;;;2.17;;
6243;SDS011;3155;49.940;8.450;2023-07-02T07:50:07;5.47;;;2.20;;
6243;SDS011;3155;49.940;8.450;2023-07-02T07:52:41;4.93;;;2.67;;
6243;SDS011;3155;49.940;8.450;2023-07-02T07:55:08;6.88;;;3.05;;
6243;SDS011;3155;49.940;8.450;2023-07-02T07:57:37;3.33;;;2.50;;
6243;SDS011;3155;49.940;8.450;2023-07-02T08:00:07;3.78;;;2.10;;
6243;SDS011;3155;49.940;8.450;2023-07-02T08:02:36;8.05;;;2.38;;
6243;SDS011;3155;49.940;8.450;2023-07-02T08:05:04;5.80;;;2.88;;
6243;SDS011;3155;49.940;8.450;2023-07-02T08:07:33;4.60;;;2.22;;
6243;SDS011;3155;49.940;8.450;2023-07-02T08:10:01;1.90;;;1.60;;
6243;SDS011;3155;49.940;8.450;2023-07-02T08:12:29;2.40;;;1.70;;
6243;SDS011;3155;49.940;8.450;2023-07-02T08:14:56;2.83;;;2.03;;
6243;SDS011;3155;49.940;8.450;2023-07-02T08:17:23;3.95;;;2.47;;
6243;SDS011;3155;49.940;8.450;2023-07-02T08:19:52;3.17;;;2.05;;
6243;SDS011;3155;49.940;8.450;2023-07-02T08:22:19;2.22;;;2.03;;
6243;SDS011;3155;49.940;8.450;2023-07-02T08:24:46;2.50;;;2.00;;
6243;SDS011;3155;49.940;8.450;2023-07-02T08:27:16;2.28;;;2.00;;
6243;SDS011;3155;49.940;8.450;2023-07-02T08:29:46;2.63;;;2.30;;
6243;SDS011;3155;49.940;8.450;2023-07-02T08:32:16;3.30;;;1.83;;
6243;SDS011;3155;49.940;8.450;2023-07-02T08:34:47;1.65;;;1.52;;
6243;SDS011;3155;49.940;8.450;2023-07-02T08:37:14;2.00;;;1.75;;
6243;SDS011;3155;49.940;8.450;2023-07-02T08:39:44;4.85;;;2.17;;
6243;SDS011;3155;49.940;8.450;2023-07-02T08:42:11;2.57;;;2.27;;
6243;SDS011;3155;49.940;8.450;2023-07-02T08:44:38;2.88;;;1.88;;
6243;SDS011;3155;49.940;8.450;2023-07-02T08:47:05;4.30;;;2.03;;
6243;SDS011;3155;49.940;8.450;2023-07-02T08:49:32;2.75;;;2.05;;
6243;SDS011;3155;49.940;8.450;2023-07-02T08:52:02;3.33;;;2.28;;
6243;SDS011;3155;49.940;8.450;2023-07-02T08:54:29;4.07;;;1.95;;
6243;SDS011;3155;49.940;8.450;2023-07-02T08:56:56;3.97;;;2.20;;
6243;SDS011;3155;49.940;8.450;2023-07-02T08:59:24;3.80;;;2.22;;
6243;SDS011;3155;49.940;8.450;2023-07-02T09:01:52;1.83;;;1.50;;
6243;SDS011;3155;49.940;8.450;2023-07-02T09:04:23;2.55;;;2.35;;
6243;SDS011;3155;49.940;8.450;2023-07-02T09:06:51;4.47;;;1.65;;
6243;SDS011;3155;49.940;8.450;2023-07-02T09:09:31;2.13;;;1.92;;
6243;SDS011;3155;49.940;8.450;2023-07-02T09:12:01;1.77;;;1.50;;
6243;SDS011;3155;49.940;8.450;2023-07-02T09:14:29;1.55;;;1.40;;
6243;SDS011;3155;49.940;8.450;2023-07-02T09:17:05;3.25;;;2.03;;
6243;SDS011;3155;49.940;8.450;2023-07-02T09:19:34;2.10;;;1.60;;
6243;SDS011;3155;49.940;8.450;2023-07-02T09:22:01;2.70;;;2.05;;
6243;SDS011;3155;49.940;8.450;2023-07-02T09:24:29;2.20;;;1.50;;
6243;SDS011;3155;49.940;8.450;2023-07-02T09:27:01;4.25;;;2.25;;
6243;SDS011;3155;49.940;8.450;2023-07-02T09:29:32;3.10;;;1.88;;
6243;SDS011;3155;49.940;8.450;2023-07-02T09:32:00;3.65;;;2.30;;
6243;SDS011;3155;49.940;8.450;2023-07-02T09:34:37;4.03;;;2.53;;
6243;SDS011;3155;49.940;8.450;2023-07-02T09:37:09;3.20;;;2.13;;
6243;SDS011;3155;49.940;8.450;2023-07-02T09:39:37;2.97;;;1.90;;
6243;SDS011;3155;49.940;8.450;2023-07-02T09:42:06;3.10;;;2.47;;
6243;SDS011;3155;49.940;8.450;2023-07-02T09:44:34;2.50;;;1.77;;
6243;SDS011;3155;49.940;8.450;2023-07-02T09:47:08;9.18;;;2.13;;
6243;SDS011;3155;49.940;8.450;2023-07-02T09:49:38;3.85;;;1.70;;
6243;SDS011;3155;49.940;8.450;2023-07-02T09:52:07;1.90;;;1.80;;
6243;SDS011;3155;49.940;8.450;2023-07-02T09:54:36;2.23;;;1.97;;
6243;SDS011;3155;49.940;8.450;2023-07-02T09:57:05;2.80;;;2.40;;
6243;SDS011;3155;49.940;8.450;2023-07-02T09:59:33;2.60;;;1.83;;
6243;SDS011;3155;49.940;8.450;2023-07-02T10:02:03;2.20;;;1.90;;
6243;SDS011;3155;49.940;8.450;2023-07-02T10:04:41;2.30;;;1.50;;
6243;SDS011;3155;49.940;8.450;2023-07-02T10:07:10;3.10;;;2.07;;
6243;SDS011;3155;49.940;8.450;2023-07-02T10:09:43;4.05;;;2.08;;
6243;SDS011;3155;49.940;8.450;2023-07-02T10:12:21;3.25;;;1.77;;
6243;SDS011;3155;49.940;8.450;2023-07-02T10:14:50;3.50;;;1.60;;
6243;SDS011;3155;49.940;8.450;2023-07-02T10:17:27;2.53;;;1.77;;
6243;SDS011;3155;49.940;8.450;2023-07-02T10:19:59;2.00;;;1.85;;
6243;SDS011;3155;49.940;8.450;2023-07-02T10:22:27;2.35;;;1.95;;
6243;SDS011;3155;49.940;8.450;2023-07-02T10:24:55;3.17;;;2.70;;
6243;SDS011;3155;49.940;8.450;2023-07-02T10:27:32;3.75;;;2.28;;
6243;SDS011;3155;49.940;8.450;2023-07-02T10:30:03;4.10;;;2.13;;
6243;SDS011;3155;49.940;8.450;2023-07-02T10:32:31;4.50;;;2.40;;
6243;SDS011;3155;49.940;8.450;2023-07-02T10:35:16;2.53;;;2.20;;
6243;SDS011;3155;49.940;8.450;2023-07-02T10:37:43;3.38;;;2.10;;
6243;SDS011;3155;49.940;8.450;2023-07-02T10:40:11;3.25;;;2.08;;
6243;SDS011;3155;49.940;8.450;2023-07-02T10:45:15;3.50;;;2.10;;
6243;SDS011;3155;49.940;8.450;2023-07-02T10:47:43;6.40;;;2.50;;
6243;SDS011;3155;49.940;8.450;2023-07-02T10:50:20;6.45;;;2.47;;
6243;SDS011;3155;49.940;8.450;2023-07-02T10:52:49;4.13;;;2.40;;
6243;SDS011;3155;49.940;8.450;2023-07-02T10:55:17;3.58;;;2.47;;
6243;SDS011;3155;49.940;8.450;2023-07-02T10:57:45;4.93;;;2.60;;
6243;SDS011;3155;49.940;8.450;2023-07-02T11:00:15;4.40;;;2.55;;
6243;SDS011;3155;49.940;8.450;2023-07-02T11:02:42;2.45;;;2.10;;
6243;SDS011;3155;49.940;8.450;2023-07-02T11:05:10;2.92;;;2.53;;
6243;SDS011;3155;49.940;8.450;2023-07-02T11:07:41;4.88;;;3.25;;
6243;SDS011;3155;49.940;8.450;2023-07-02T11:10:10;2.55;;;2.35;;
6243;SDS011;3155;49.940;8.450;2023-07-02T11:12:43;4.07;;;2.50;;
6243;SDS011;3155;49.940;8.450;2023-07-02T11:15:12;3.17;;;2.28;;
6243;SDS011;3155;49.940;8.450;2023-07-02T11:17:40;5.20;;;2.03;;
6243;SDS011;3155;49.940;8.450;2023-07-02T11:20:09;2.80;;;2.45;;
6243;SDS011;3155;49.940;8.450;2023-07-02T11:22:39;2.38;;;1.92;;
6243;SDS011;3155;49.940;8.450;2023-07-02T11:25:15;5.47;;;2.75;;
6243;SDS011;3155;49.940;8.450;2023-07-02T11:27:45;3.97;;;2.65;;
6243;SDS011;3155;49.940;8.450;2023-07-02T11:30:12;4.07;;;2.70;;
6243;SDS011;3155;49.940;8.450;2023-07-02T11:32:51;7.00;;;3.20;;
6243;SDS011;3155;49.940;8.450;2023-07-02T11:35:19;4.22;;;2.55;;
6243;SDS011;3155;49.940;8.450;2023-07-02T11:37:49;5.20;;;3.10;;
6243;SDS011;3155;49.940;8.450;2023-07-02T11:40:17;3.45;;;2.30;;
6243;SDS011;3155;49.940;8.450;2023-07-02T11:42:47;2.63;;;2.13;;
6243;SDS011;3155;49.940;8.450;2023-07-02T11:45:15;4.07;;;2.45;;
6243;SDS011;3155;49.940;8.450;2023-07-02T11:47:42;4.43;;;2.40;;
6243;SDS011;3155;49.940;8.450;2023-07-02T11:50:10;5.00;;;2.67;;
6243;SDS011;3155;49.940;8.450;2023-07-02T11:52:52;3.03;;;2.50;;
6243;SDS011;3155;49.940;8.450;2023-07-02T11:55:23;6.35;;;2.58;;
6243;SDS011;3155;49.940;8.450;2023-07-02T11:57:53;6.20;;;3.35;;
6243;SDS011;3155;49.940;8.450;2023-07-02T12:00:20;4.68;;;2.50;;
6243;SDS011;3155;49.940;8.450;2023-07-02T12:02:48;3.55;;;2.60;;
6243;SDS011;3155;49.940;8.450;2023-07-02T12:05:15;3.20;;;2.58;;
6243;SDS011;3155;49.940;8.450;2023-07-02T12:07:42;6.75;;;2.97;;
6243;SDS011;3155;49.940;8.450;2023-07-02T12:10:10;4.75;;;2.75;;
6243;SDS011;3155;49.940;8.450;2023-07-02T12:12:41;6.60;;;2.63;;
6243;SDS011;3155;49.940;8.450;2023-07-02T12:15:09;4.20;;;2.90;;
6243;SDS011;3155;49.940;8.450;2023-07-02T12:17:36;3.58;;;2.75;;
6243;SDS011;3155;49.940;8.450;2023-07-02T12:20:03;3.97;;;2.80;;
6243;SDS011;3155;49.940;8.450;2023-07-02T12:22:31;4.15;;;2.78;;
6243;SDS011;3155;49.940;8.450;2023-07-02T12:24:58;3.92;;;2.78;;
6243;SDS011;3155;49.940;8.450;2023-07-02T12:27:28;4.32;;;2.47;;
6243;SDS011;3155;49.940;8.450;2023-07-02T12:29:56;5.33;;;2.83;;
6243;SDS011;3155;49.940;8.450;2023-07-02T12:32:23;6.38;;;2.83;;
6243;SDS011;3155;49.940;8.450;2023-07-02T12:34:50;5.53;;;2.72;;
6243;SDS011;3155;49.940;8.450;2023-07-02T12:37:42;2.78;;;2.42;;
6243;SDS011;3155;49.940;8.450;2023-07-02T12:40:11;6.10;;;2.90;;
6243;SDS011;3155;49.940;8.450;2023-07-02T12:42:43;4.97;;;3.00;;
6243;SDS011;3155;49.940;8.450;2023-07-02T12:45:11;3.22;;;2.30;;
6243;SDS011;3155;49.940;8.450;2023-07-02T12:47:43;3.90;;;2.90;;
6243;SDS011;3155;49.940;8.450;2023-07-02T12:50:10;5.60;;;3.72;;
6243;SDS011;3155;49.940;8.450;2023-07-02T12:52:40;5.22;;;2.67;;
6243;SDS011;3155;49.940;8.450;2023-07-02T12:55:09;3.75;;;3.03;;
6243;SDS011;3155;49.940;8.450;2023-07-02T12:57:36;4.25;;;3.00;;
6243;SDS011;3155;49.940;8.450;2023-07-02T13:00:05;3.20;;;2.60;;
6243;SDS011;3155;49.940;8.450;2023-07-02T13:02:35;4.80;;;2.25;;
6243;SDS011;3155;49.940;8.450;2023-07-02T13:05:19;4.45;;;2.45;;
6243;SDS011;3155;49.940;8.450;2023-07-02T13:07:46;6.97;;;2.90;;
6243;SDS011;3155;49.940;8.450;2023-07-02T13:10:17;3.55;;;2.33;;
6243;SDS011;3155;49.940;8.450;2023-07-02T13:12:44;3.38;;;2.53;;
6243;SDS011;3155;49.940;8.450;2023-07-02T13:15:35;5.93;;;2.55;;
6243;SDS011;3155;49.940;8.450;2023-07-02T13:18:02;3.80;;;2.53;;
6243;SDS011;3155;49.940;8.450;2023-07-02T13:20:32;4.20;;;2.23;;
6243;SDS011;3155;49.940;8.450;2023-07-02T13:23:00;3.70;;;2.22;;
6243;SDS011;3155;49.940;8.450;2023-07-02T13:25:27;3.07;;;2.40;;
6243;SDS011;3155;49.940;8.450;2023-07-02T13:27:55;3.95;;;2.47;;
6243;SDS011;3155;49.940;8.450;2023-07-02T13:30:22;4.32;;;2.33;;
6243;SDS011;3155;49.940;8.450;2023-07-02T13:32:50;6.40;;;2.67;;
6243;SDS011;3155;49.940;8.450;2023-07-02T13:35:18;3.20;;;2.10;;
6243;SDS011;3155;49.940;8.450;2023-07-02T13:37:47;3.47;;;2.50;;
6243;SDS011;3155;49.940;8.450;2023-07-02T13:40:14;3.75;;;2.63;;
6243;SDS011;3155;49.940;8.450;2023-07-02T13:42:42;5.68;;;3.15;;
6243;SDS011;3155;49.940;8.450;2023-07-02T13:45:09;3.03;;;2.22;;
6243;SDS011;3155;49.940;8.450;2023-07-02T13:47:37;2.85;;;1.83;;
6243;SDS011;3155;49.940;8.450;2023-07-02T13:50:05;4.10;;;2.53;;
6243;SDS011;3155;49.940;8.450;2023-07-02T13:52:37;3.38;;;2.05;;
6243;SDS011;3155;49.940;8.450;2023-07-02T13:55:05;3.83;;;2.20;;
6243;SDS011;3155;49.940;8.450;2023-07-02T13:57:32;4.75;;;2.65;;
6243;SDS011;3155;49.940;8.450;2023-07-02T13:59:59;2.67;;;2.17;;
6243;SDS011;3155;49.940;8.450;2023-07-02T14:02:27;5.97;;;2.70;;
6243;SDS011;3155;49.940;8.450;2023-07-02T14:04:59;3.30;;;2.30;;
6243;SDS011;3155;49.940;8.450;2023-07-02T14:07:27;5.78;;;2.55;;
6243;SDS011;3155;49.940;8.450;2023-07-02T14:10:01;3.80;;;2.40;;
6243;SDS011;3155;49.940;8.450;2023-07-02T14:12:28;2.67;;;2.38;;
6243;SDS011;3155;49.940;8.450;2023-07-02T14:14:57;3.08;;;2.33;;
6243;SDS011;3155;49.940;8.450;2023-07-02T14:17:24;7.63;;;2.55;;
6243;SDS011;3155;49.940;8.450;2023-07-02T14:19:52;2.25;;;2.00;;
6243;SDS011;3155;49.940;8.450;2023-07-02T14:22:19;4.83;;;2.30;;
6243;SDS011;3155;49.940;8.450;2023-07-02T14:24:47;2.90;;;2.13;;
6243;SDS011;3155;49.940;8.450;2023-07-02T14:27:14;4.72;;;2.60;;
6243;SDS011;3155;49.940;8.450;2023-07-02T14:29:41;3.47;;;2.33;;
6243;SDS011;3155;49.940;8.450;2023-07-02T14:32:10;5.63;;;3.08;;
6243;SDS011;3155;49.940;8.450;2023-07-02T14:34:37;2.65;;;2.30;;
6243;SDS011;3155;49.940;8.450;2023-07-02T14:37:09;3.60;;;2.90;;
6243;SDS011;3155;49.940;8.450;2023-07-02T14:39:41;4.05;;;2.38;;
6243;SDS011;3155;49.940;8.450;2023-07-02T14:42:26;3.88;;;2.10;;
6243;SDS011;3155;49.940;8.450;2023-07-02T14:44:53;3.17;;;2.75;;
6243;SDS011;3155;49.940;8.450;2023-07-02T14:47:23;2.80;;;2.42;;
6243;SDS011;3155;49.940;8.450;2023-07-02T14:49:51;4.90;;;2.40;;
6243;SDS011;3155;49.940;8.450;2023-07-02T14:52:22;2.70;;;2.28;;
6243;SDS011;3155;49.940;8.450;2023-07-02T14:54:55;9.90;;;2.60;;
6243;SDS011;3155;49.940;8.450;2023-07-02T14:57:22;5.68;;;2.97;;
6243;SDS011;3155;49.940;8.450;2023-07-02T14:59:51;4.55;;;2.88;;
6243;SDS011;3155;49.940;8.450;2023-07-02T15:02:18;2.95;;;2.03;;
6243;SDS011;3155;49.940;8.450;2023-07-02T15:04:46;3.57;;;2.37;;
6243;SDS011;3155;49.940;8.450;2023-07-02T15:07:13;2.80;;;2.53;;
6243;SDS011;3155;49.940;8.450;2023-07-02T15:09:43;4.22;;;2.60;;
6243;SDS011;3155;49.940;8.450;2023-07-02T15:12:10;3.72;;;2.58;;
6243;SDS011;3155;49.940;8.450;2023-07-02T15:14:38;4.63;;;2.40;;
6243;SDS011;3155;49.940;8.450;2023-07-02T15:17:05;4.23;;;2.40;;
6243;SDS011;3155;49.940;8.450;2023-07-02T15:19:37;5.20;;;2.58;;
6243;SDS011;3155;49.940;8.450;2023-07-02T15:22:05;2.88;;;2.58;;
6243;SDS011;3155;49.940;8.450;2023-07-02T15:24:32;3.95;;;2.50;;
6243;SDS011;3155;49.940;8.450;2023-07-02T15:27:06;4.43;;;2.92;;
6243;SDS011;3155;49.940;8.450;2023-07-02T15:29:34;6.25;;;2.35;;